sensor_id;sensor_type;location;lat;lon;timestamp;P1;durP1;ratioP1;P2;durP2;ratioP2
65706;SDS011;52423;43.512;5.220;2022-10-18T00:02:12;5.47;;;3.85;;
65706;SDS011;52423;43.512;5.220;2022-10-18T00:04:38;4.35;;;3.72;;
65706;SDS011;52423;43.512;5.220;2022-10-18T00:07:03;5.75;;;3.70;;
65706;SDS011;52423;43.512;5.220;2022-10-18T00:09:28;4.53;;;3.72;;
65706;SDS011;52423;43.512;5.220;2022-10-18T00:11:54;4.32;;;3.47;;
65706;SDS011;52423;43.512;5.220;2022-10-18T00:14:19;5.70;;;3.42;;
65706;SDS011;52423;43.512;5.220;2022-10-18T00:16:45;4.00;;;3.55;;
65706;SDS011;52423;43.512;5.220;2022-10-18T00:19:10;5.13;;;3.67;;
65706;SDS011;52423;43.512;5.220;2022-10-18T00:21:36;3.95;;;3.53;;
65706;SDS011;52423;43.512;5.220;2022-10-18T00:24:01;3.70;;;3.40;;
65706;SDS011;52423;43.512;5.220;2022-10-18T00:26:28;6.85;;;3.55;;
65706;SDS011;52423;43.512;5.220;2022-10-18T00:28:55;7.90;;;4.00;;
65706;SDS011;52423;43.512;5.220;2022-10-18T00:31:29;4.00;;;3.60;;
65706;SDS011;52423;43.512;5.220;2022-10-18T00:34:00;5.93;;;3.75;;
65706;SDS011;52423;43.512;5.220;2022-10-18T00:36:29;4.80;;;3.45;;
65706;SDS011;52423;43.512;5.220;2022-10-18T00:38:56;5.88;;;4.57;;
65706;SDS011;52423;43.512;5.220;2022-10-18T00:41:22;6.53;;;4.05;;
65706;SDS011;52423;43.512;5.220;2022-10-18T00:43:53;6.60;;;3.67;;
65706;SDS011;52423;43.512;5.220;2022-10-18T00:46:22;5.93;;;4.18;;
65706;SDS011;52423;43.512;5.220;2022-10-18T00:48:49;5.75;;;4.05;;
65706;SDS011;52423;43.512;5.220;2022-10-18T00:51:17;4.47;;;3.78;;
65706;SDS011;52423;43.512;5.220;2022-10-18T00:53:43;5.45;;;4.20;;
65706;SDS011;52423;43.512;5.220;2022-10-18T00:56:09;4.35;;;3.90;;
65706;SDS011;52423;43.512;5.220;2022-10-18T00:58:36;5.93;;;4.00;;
65706;SDS011;52423;43.512;5.220;2022-10-18T01:01:01;6.80;;;4.05;;
65706;SDS011;52423;43.512;5.220;2022-10-18T01:03:27;6.65;;;4.00;;
65706;SDS011;52423;43.512;5.220;2022-10-18T01:05:52;4.40;;;4.00;;
65706;SDS011;52423;43.512;5.220;2022-10-18T01:08:32;10.57;;;4.25;;
65706;SDS011;52423;43.512;5.220;2022-10-18T01:11:08;9.52;;;4.50;;
65706;SDS011;52423;43.512;5.220;2022-10-18T01:18:52;7.30;;;4.22;;
65706;SDS011;52423;43.512;5.220;2022-10-18T01:21:26;5.43;;;4.13;;
65706;SDS011;52423;43.512;5.220;2022-10-18T01:32:49;5.70;;;4.03;;
65706;SDS011;52423;43.512;5.220;2022-10-18T01:35:19;7.32;;;4.35;;
65706;SDS011;52423;43.512;5.220;2022-10-18T01:37:50;7.30;;;4.30;;
65706;SDS011;52423;43.512;5.220;2022-10-18T01:40:18;4.35;;;4.00;;
65706;SDS011;52423;43.512;5.220;2022-10-18T01:42:46;5.47;;;3.63;;
65706;SDS011;52423;43.512;5.220;2022-10-18T01:45:14;7.63;;;4.25;;
65706;SDS011;52423;43.512;5.220;2022-10-18T01:47:41;7.18;;;4.45;;
65706;SDS011;52423;43.512;5.220;2022-10-18T01:50:09;7.97;;;4.18;;
65706;SDS011;52423;43.512;5.220;2022-10-18T01:52:34;5.60;;;4.05;;
65706;SDS011;52423;43.512;5.220;2022-10-18T01:55:00;6.22;;;4.22;;
65706;SDS011;52423;43.512;5.220;2022-10-18T02:00:11;5.35;;;4.10;;
65706;SDS011;52423;43.512;5.220;2022-10-18T02:10:43;4.80;;;4.15;;
65706;SDS011;52423;43.512;5.220;2022-10-18T02:13:13;8.07;;;3.97;;
65706;SDS011;52423;43.512;5.220;2022-10-18T02:15:42;9.85;;;3.80;;
65706;SDS011;52423;43.512;5.220;2022-10-18T02:18:11;4.90;;;4.38;;
65706;SDS011;52423;43.512;5.220;2022-10-18T02:20:41;5.03;;;3.97;;
65706;SDS011;52423;43.512;5.220;2022-10-18T02:23:07;5.15;;;4.15;;
65706;SDS011;52423;43.512;5.220;2022-10-18T02:25:34;4.80;;;4.30;;
65706;SDS011;52423;43.512;5.220;2022-10-18T02:28:00;6.82;;;3.85;;
65706;SDS011;52423;43.512;5.220;2022-10-18T02:30:38;5.28;;;3.70;;
65706;SDS011;52423;43.512;5.220;2022-10-18T02:33:11;3.97;;;3.67;;
65706;SDS011;52423;43.512;5.220;2022-10-18T02:35:46;6.93;;;4.30;;
65706;SDS011;52423;43.512;5.220;2022-10-18T02:38:15;5.38;;;4.07;;
65706;SDS011;52423;43.512;5.220;2022-10-18T02:40:43;4.63;;;4.00;;
65706;SDS011;52423;43.512;5.220;2022-10-18T02:43:08;4.90;;;4.20;;
65706;SDS011;52423;43.512;5.220;2022-10-18T02:45:33;7.63;;;4.40;;
65706;SDS011;52423;43.512;5.220;2022-10-18T02:47:59;5.82;;;4.53;;
65706;SDS011;52423;43.512;5.220;2022-10-18T02:50:24;7.32;;;4.50;;
65706;SDS011;52423;43.512;5.220;2022-10-18T02:52:50;10.57;;;4.68;;
65706;SDS011;52423;43.512;5.220;2022-10-18T02:55:15;6.68;;;4.35;;
65706;SDS011;52423;43.512;5.220;2022-10-18T02:57:41;6.13;;;3.97;;
65706;SDS011;52423;43.512;5.220;2022-10-18T03:00:06;5.13;;;4.28;;
65706;SDS011;52423;43.512;5.220;2022-10-18T03:02:32;8.18;;;4.03;;
65706;SDS011;52423;43.512;5.220;2022-10-18T03:04:57;4.43;;;4.03;;
65706;SDS011;52423;43.512;5.220;2022-10-18T03:07:23;4.50;;;3.65;;
65706;SDS011;52423;43.512;5.220;2022-10-18T03:09:48;4.30;;;3.90;;
65706;SDS011;52423;43.512;5.220;2022-10-18T03:12:13;5.38;;;4.13;;
65706;SDS011;52423;43.512;5.220;2022-10-18T03:14:39;9.73;;;4.55;;
65706;SDS011;52423;43.512;5.220;2022-10-18T03:17:04;5.93;;;4.10;;
65706;SDS011;52423;43.512;5.220;2022-10-18T03:19:30;6.00;;;4.15;;
65706;SDS011;52423;43.512;5.220;2022-10-18T03:21:55;8.52;;;4.05;;
65706;SDS011;52423;43.512;5.220;2022-10-18T03:24:20;6.75;;;4.30;;
65706;SDS011;52423;43.512;5.220;2022-10-18T03:26:46;6.03;;;4.30;;
65706;SDS011;52423;43.512;5.220;2022-10-18T03:29:11;6.65;;;3.97;;
65706;SDS011;52423;43.512;5.220;2022-10-18T03:31:37;7.32;;;4.82;;
65706;SDS011;52423;43.512;5.220;2022-10-18T03:34:02;6.72;;;4.05;;
65706;SDS011;52423;43.512;5.220;2022-10-18T03:36:27;6.90;;;4.28;;
65706;SDS011;52423;43.512;5.220;2022-10-18T03:38:53;8.50;;;4.22;;
65706;SDS011;52423;43.512;5.220;2022-10-18T03:41:18;6.00;;;4.15;;
65706;SDS011;52423;43.512;5.220;2022-10-18T03:43:44;4.75;;;4.38;;
65706;SDS011;52423;43.512;5.220;2022-10-18T03:46:10;7.55;;;4.20;;
65706;SDS011;52423;43.512;5.220;2022-10-18T03:48:36;5.90;;;4.43;;
65706;SDS011;52423;43.512;5.220;2022-10-18T03:51:01;5.38;;;4.53;;
65706;SDS011;52423;43.512;5.220;2022-10-18T03:53:27;5.13;;;4.45;;
65706;SDS011;52423;43.512;5.220;2022-10-18T03:55:53;6.03;;;4.53;;
65706;SDS011;52423;43.512;5.220;2022-10-18T03:58:19;5.68;;;4.32;;
65706;SDS011;52423;43.512;5.220;2022-10-18T04:00:47;5.40;;;4.63;;
65706;SDS011;52423;43.512;5.220;2022-10-18T04:03:13;5.85;;;4.65;;
65706;SDS011;52423;43.512;5.220;2022-10-18T04:05:39;5.30;;;4.60;;
65706;SDS011;52423;43.512;5.220;2022-10-18T04:08:04;6.95;;;4.53;;
65706;SDS011;52423;43.512;5.220;2022-10-18T04:10:29;5.85;;;4.32;;
65706;SDS011;52423;43.512;5.220;2022-10-18T04:12:55;8.32;;;4.63;;
65706;SDS011;52423;43.512;5.220;2022-10-18T04:15:20;4.90;;;4.28;;
65706;SDS011;52423;43.512;5.220;2022-10-18T04:17:46;4.78;;;4.30;;
65706;SDS011;52423;43.512;5.220;2022-10-18T04:20:11;6.28;;;4.25;;
65706;SDS011;52423;43.512;5.220;2022-10-18T04:22:37;5.55;;;4.40;;
65706;SDS011;52423;43.512;5.220;2022-10-18T04:25:03;8.05;;;4.88;;
65706;SDS011;52423;43.512;5.220;2022-10-18T04:27:28;7.22;;;3.97;;
65706;SDS011;52423;43.512;5.220;2022-10-18T04:29:54;9.63;;;4.57;;
65706;SDS011;52423;43.512;5.220;2022-10-18T04:32:19;5.20;;;4.68;;
65706;SDS011;52423;43.512;5.220;2022-10-18T04:34:44;8.38;;;5.05;;
65706;SDS011;52423;43.512;5.220;2022-10-18T04:37:10;5.78;;;4.13;;
65706;SDS011;52423;43.512;5.220;2022-10-18T04:39:35;7.95;;;4.60;;
65706;SDS011;52423;43.512;5.220;2022-10-18T04:42:01;7.40;;;4.40;;
65706;SDS011;52423;43.512;5.220;2022-10-18T04:44:26;6.63;;;4.53;;
65706;SDS011;52423;43.512;5.220;2022-10-18T04:46:51;9.13;;;5.28;;
65706;SDS011;52423;43.512;5.220;2022-10-18T04:49:17;7.15;;;4.45;;
65706;SDS011;52423;43.512;5.220;2022-10-18T04:51:42;6.97;;;4.80;;
65706;SDS011;52423;43.512;5.220;2022-10-18T04:54:07;7.03;;;4.80;;
65706;SDS011;52423;43.512;5.220;2022-10-18T04:56:33;5.97;;;4.68;;
65706;SDS011;52423;43.512;5.220;2022-10-18T04:58:58;6.35;;;4.82;;
65706;SDS011;52423;43.512;5.220;2022-10-18T05:01:24;5.22;;;4.57;;
65706;SDS011;52423;43.512;5.220;2022-10-18T05:03:52;5.50;;;4.43;;
65706;SDS011;52423;43.512;5.220;2022-10-18T05:06:18;6.97;;;4.40;;
65706;SDS011;52423;43.512;5.220;2022-10-18T05:08:44;5.22;;;4.78;;
65706;SDS011;52423;43.512;5.220;2022-10-18T05:11:09;5.88;;;4.63;;
65706;SDS011;52423;43.512;5.220;2022-10-18T05:13:35;7.75;;;4.43;;
65706;SDS011;52423;43.512;5.220;2022-10-18T05:16:02;7.95;;;4.25;;
65706;SDS011;52423;43.512;5.220;2022-10-18T05:18:28;5.82;;;4.78;;
65706;SDS011;52423;43.512;5.220;2022-10-18T05:20:53;4.78;;;4.30;;
65706;SDS011;52423;43.512;5.220;2022-10-18T05:23:18;7.78;;;4.43;;
65706;SDS011;52423;43.512;5.220;2022-10-18T05:25:44;5.38;;;4.40;;
65706;SDS011;52423;43.512;5.220;2022-10-18T05:28:10;5.40;;;4.22;;
65706;SDS011;52423;43.512;5.220;2022-10-18T05:30:38;4.40;;;4.00;;
65706;SDS011;52423;43.512;5.220;2022-10-18T05:33:05;10.02;;;4.60;;
65706;SDS011;52423;43.512;5.220;2022-10-18T05:35:31;7.72;;;4.30;;
65706;SDS011;52423;43.512;5.220;2022-10-18T05:37:57;4.78;;;4.38;;
65706;SDS011;52423;43.512;5.220;2022-10-18T05:40:22;6.65;;;4.30;;
65706;SDS011;52423;43.512;5.220;2022-10-18T05:42:50;4.65;;;4.25;;
65706;SDS011;52423;43.512;5.220;2022-10-18T05:45:16;7.03;;;4.00;;
65706;SDS011;52423;43.512;5.220;2022-10-18T05:47:41;6.68;;;4.30;;
65706;SDS011;52423;43.512;5.220;2022-10-18T05:50:07;8.90;;;4.28;;
65706;SDS011;52423;43.512;5.220;2022-10-18T05:52:32;6.20;;;4.35;;
65706;SDS011;52423;43.512;5.220;2022-10-18T05:54:58;6.93;;;4.55;;
65706;SDS011;52423;43.512;5.220;2022-10-18T05:57:23;4.25;;;3.95;;
65706;SDS011;52423;43.512;5.220;2022-10-18T05:59:48;9.00;;;4.35;;
65706;SDS011;52423;43.512;5.220;2022-10-18T06:02:14;4.38;;;3.97;;
65706;SDS011;52423;43.512;5.220;2022-10-18T06:04:39;6.53;;;4.15;;
65706;SDS011;52423;43.512;5.220;2022-10-18T06:07:10;5.80;;;4.55;;
65706;SDS011;52423;43.512;5.220;2022-10-18T06:09:36;5.60;;;3.83;;
65706;SDS011;52423;43.512;5.220;2022-10-18T06:12:03;5.88;;;4.28;;
65706;SDS011;52423;43.512;5.220;2022-10-18T06:14:29;4.22;;;3.83;;
65706;SDS011;52423;43.512;5.220;2022-10-18T06:16:55;8.52;;;4.40;;
65706;SDS011;52423;43.512;5.220;2022-10-18T06:19:21;5.03;;;3.80;;
65706;SDS011;52423;43.512;5.220;2022-10-18T06:21:46;5.25;;;4.22;;
65706;SDS011;52423;43.512;5.220;2022-10-18T06:24:12;6.57;;;4.22;;
65706;SDS011;52423;43.512;5.220;2022-10-18T06:26:37;7.13;;;4.60;;
65706;SDS011;52423;43.512;5.220;2022-10-18T06:29:03;9.77;;;4.30;;
65706;SDS011;52423;43.512;5.220;2022-10-18T06:31:28;5.88;;;4.28;;
65706;SDS011;52423;43.512;5.220;2022-10-18T06:33:54;11.30;;;4.65;;
65706;SDS011;52423;43.512;5.220;2022-10-18T06:36:22;8.38;;;4.15;;
65706;SDS011;52423;43.512;5.220;2022-10-18T06:38:47;16.60;;;5.53;;
65706;SDS011;52423;43.512;5.220;2022-10-18T06:41:12;11.23;;;5.88;;
65706;SDS011;52423;43.512;5.220;2022-10-18T06:43:38;15.43;;;5.88;;
65706;SDS011;52423;43.512;5.220;2022-10-18T06:46:04;6.65;;;4.57;;
65706;SDS011;52423;43.512;5.220;2022-10-18T06:48:31;10.07;;;5.30;;
65706;SDS011;52423;43.512;5.220;2022-10-18T06:50:59;7.15;;;4.68;;
65706;SDS011;52423;43.512;5.220;2022-10-18T06:53:27;8.95;;;4.55;;
65706;SDS011;52423;43.512;5.220;2022-10-18T06:56:01;9.25;;;4.72;;
65706;SDS011;52423;43.512;5.220;2022-10-18T06:58:29;5.78;;;4.93;;
65706;SDS011;52423;43.512;5.220;2022-10-18T07:00:55;6.53;;;4.70;;
65706;SDS011;52423;43.512;5.220;2022-10-18T07:03:21;6.63;;;4.45;;
65706;SDS011;52423;43.512;5.220;2022-10-18T07:05:50;11.02;;;4.68;;
65706;SDS011;52423;43.512;5.220;2022-10-18T07:08:15;5.40;;;4.72;;
65706;SDS011;52423;43.512;5.220;2022-10-18T07:10:42;6.60;;;4.40;;
65706;SDS011;52423;43.512;5.220;2022-10-18T07:13:14;5.60;;;4.88;;
65706;SDS011;52423;43.512;5.220;2022-10-18T07:15:39;11.75;;;4.38;;
65706;SDS011;52423;43.512;5.220;2022-10-18T07:18:04;5.75;;;4.60;;
65706;SDS011;52423;43.512;5.220;2022-10-18T07:20:30;9.82;;;4.25;;
65706;SDS011;52423;43.512;5.220;2022-10-18T07:22:55;12.55;;;4.43;;
65706;SDS011;52423;43.512;5.220;2022-10-18T07:25:21;6.85;;;4.03;;
65706;SDS011;52423;43.512;5.220;2022-10-18T07:27:46;6.95;;;3.85;;
65706;SDS011;52423;43.512;5.220;2022-10-18T07:30:11;5.15;;;4.05;;
65706;SDS011;52423;43.512;5.220;2022-10-18T07:32:37;11.27;;;4.63;;
65706;SDS011;52423;43.512;5.220;2022-10-18T07:35:02;8.18;;;4.25;;
65706;SDS011;52423;43.512;5.220;2022-10-18T07:37:28;7.95;;;4.20;;
65706;SDS011;52423;43.512;5.220;2022-10-18T07:39:54;6.32;;;4.50;;
65706;SDS011;52423;43.512;5.220;2022-10-18T07:42:19;8.77;;;3.85;;
65706;SDS011;52423;43.512;5.220;2022-10-18T07:44:44;9.05;;;4.18;;
65706;SDS011;52423;43.512;5.220;2022-10-18T07:47:10;7.57;;;3.75;;
65706;SDS011;52423;43.512;5.220;2022-10-18T07:49:35;12.18;;;3.80;;
65706;SDS011;52423;43.512;5.220;2022-10-18T07:52:01;9.35;;;4.00;;
65706;SDS011;52423;43.512;5.220;2022-10-18T07:54:26;4.70;;;4.30;;
65706;SDS011;52423;43.512;5.220;2022-10-18T07:56:51;12.05;;;4.32;;
65706;SDS011;52423;43.512;5.220;2022-10-18T07:59:17;6.80;;;4.13;;
65706;SDS011;52423;43.512;5.220;2022-10-18T08:01:42;5.60;;;4.18;;
65706;SDS011;52423;43.512;5.220;2022-10-18T08:04:07;6.28;;;3.97;;
65706;SDS011;52423;43.512;5.220;2022-10-18T08:06:33;8.35;;;4.10;;
65706;SDS011;52423;43.512;5.220;2022-10-18T08:08:58;10.93;;;3.72;;
65706;SDS011;52423;43.512;5.220;2022-10-18T08:11:24;8.82;;;3.85;;
65706;SDS011;52423;43.512;5.220;2022-10-18T08:13:50;8.93;;;4.00;;
65706;SDS011;52423;43.512;5.220;2022-10-18T08:16:18;6.22;;;3.80;;
65706;SDS011;52423;43.512;5.220;2022-10-18T08:18:45;4.80;;;3.33;;
65706;SDS011;52423;43.512;5.220;2022-10-18T08:21:11;6.40;;;4.10;;
65706;SDS011;52423;43.512;5.220;2022-10-18T08:23:38;6.13;;;3.55;;
65706;SDS011;52423;43.512;5.220;2022-10-18T08:26:04;5.95;;;3.75;;
65706;SDS011;52423;43.512;5.220;2022-10-18T08:28:34;4.83;;;3.90;;
65706;SDS011;52423;43.512;5.220;2022-10-18T08:31:03;6.68;;;3.65;;
65706;SDS011;52423;43.512;5.220;2022-10-18T08:33:30;6.57;;;4.10;;
65706;SDS011;52423;43.512;5.220;2022-10-18T08:35:56;13.90;;;4.13;;
65706;SDS011;52423;43.512;5.220;2022-10-18T08:38:23;7.38;;;3.83;;
65706;SDS011;52423;43.512;5.220;2022-10-18T08:40:48;5.97;;;3.90;;
65706;SDS011;52423;43.512;5.220;2022-10-18T08:45:52;5.28;;;3.40;;
65706;SDS011;52423;43.512;5.220;2022-10-18T08:48:29;6.63;;;3.58;;
65706;SDS011;52423;43.512;5.220;2022-10-18T08:51:01;12.60;;;3.30;;
65706;SDS011;52423;43.512;5.220;2022-10-18T08:53:36;3.42;;;2.30;;
65706;SDS011;52423;43.512;5.220;2022-10-18T08:56:09;4.75;;;2.42;;
65706;SDS011;52423;43.512;5.220;2022-10-18T08:58:38;5.05;;;3.10;;
65706;SDS011;52423;43.512;5.220;2022-10-18T09:09:45;3.45;;;2.33;;
65706;SDS011;52423;43.512;5.220;2022-10-18T09:18:08;3.95;;;2.90;;
65706;SDS011;52423;43.512;5.220;2022-10-18T09:20:56;6.30;;;2.70;;
65706;SDS011;52423;43.512;5.220;2022-10-18T09:23:40;6.90;;;3.28;;
65706;SDS011;52423;43.512;5.220;2022-10-18T09:26:19;3.03;;;2.38;;
65706;SDS011;52423;43.512;5.220;2022-10-18T09:28:50;3.58;;;2.33;;
65706;SDS011;52423;43.512;5.220;2022-10-18T09:31:48;3.03;;;2.08;;
65706;SDS011;52423;43.512;5.220;2022-10-18T09:34:30;3.50;;;2.80;;
65706;SDS011;52423;43.512;5.220;2022-10-18T09:37:14;10.27;;;2.88;;
65706;SDS011;52423;43.512;5.220;2022-10-18T09:39:41;9.05;;;2.65;;
65706;SDS011;52423;43.512;5.220;2022-10-18T09:45:54;9.70;;;2.60;;
65706;SDS011;52423;43.512;5.220;2022-10-18T09:51:28;7.25;;;2.58;;
65706;SDS011;52423;43.512;5.220;2022-10-18T09:56:16;6.00;;;2.60;;
65706;SDS011;52423;43.512;5.220;2022-10-18T09:58:52;4.28;;;2.47;;
65706;SDS011;52423;43.512;5.220;2022-10-18T10:01:19;5.85;;;2.67;;
65706;SDS011;52423;43.512;5.220;2022-10-18T10:03:46;4.97;;;2.28;;
65706;SDS011;52423;43.512;5.220;2022-10-18T10:08:43;9.95;;;2.55;;
65706;SDS011;52423;43.512;5.220;2022-10-18T10:11:55;6.57;;;2.70;;
65706;SDS011;52423;43.512;5.220;2022-10-18T10:14:17;9.63;;;2.70;;
65706;SDS011;52423;43.512;5.220;2022-10-18T10:17:01;2.97;;;2.30;;
65706;SDS011;52423;43.512;5.220;2022-10-18T10:21:54;7.75;;;2.42;;
65706;SDS011;52423;43.512;5.220;2022-10-18T10:27:00;10.77;;;3.42;;
65706;SDS011;52423;43.512;5.220;2022-10-18T10:32:10;4.00;;;2.40;;
65706;SDS011;52423;43.512;5.220;2022-10-18T10:34:37;4.97;;;2.65;;
65706;SDS011;52423;43.512;5.220;2022-10-18T10:37:02;8.85;;;2.58;;
65706;SDS011;52423;43.512;5.220;2022-10-18T10:39:29;8.27;;;2.72;;
65706;SDS011;52423;43.512;5.220;2022-10-18T10:41:55;5.80;;;2.75;;
65706;SDS011;52423;43.512;5.220;2022-10-18T10:44:30;5.47;;;2.88;;
65706;SDS011;52423;43.512;5.220;2022-10-18T10:46:59;5.80;;;2.75;;
65706;SDS011;52423;43.512;5.220;2022-10-18T10:52:03;6.70;;;3.20;;
65706;SDS011;52423;43.512;5.220;2022-10-18T10:54:29;8.45;;;2.88;;
65706;SDS011;52423;43.512;5.220;2022-10-18T10:59:50;4.15;;;2.40;;
65706;SDS011;52423;43.512;5.220;2022-10-18T11:02:19;5.45;;;2.70;;
65706;SDS011;52423;43.512;5.220;2022-10-18T11:04:54;3.72;;;2.58;;
65706;SDS011;52423;43.512;5.220;2022-10-18T11:07:22;5.30;;;2.50;;
65706;SDS011;52423;43.512;5.220;2022-10-18T11:10:12;8.35;;;2.97;;
65706;SDS011;52423;43.512;5.220;2022-10-18T11:15:39;6.18;;;2.95;;
65706;SDS011;52423;43.512;5.220;2022-10-18T11:23:24;10.38;;;3.10;;
65706;SDS011;52423;43.512;5.220;2022-10-18T11:26:01;10.25;;;3.30;;
65706;SDS011;52423;43.512;5.220;2022-10-18T11:31:30;7.88;;;2.92;;
65706;SDS011;52423;43.512;5.220;2022-10-18T11:45:23;6.35;;;2.58;;
65706;SDS011;52423;43.512;5.220;2022-10-18T11:50:26;3.83;;;2.30;;
65706;SDS011;52423;43.512;5.220;2022-10-18T11:56:02;4.38;;;2.65;;
65706;SDS011;52423;43.512;5.220;2022-10-18T11:58:47;10.77;;;2.90;;
65706;SDS011;52423;43.512;5.220;2022-10-18T12:03:52;2.70;;;1.90;;
65706;SDS011;52423;43.512;5.220;2022-10-18T12:06:25;5.15;;;2.20;;
65706;SDS011;52423;43.512;5.220;2022-10-18T12:08:58;2.33;;;1.90;;
65706;SDS011;52423;43.512;5.220;2022-10-18T12:11:31;9.07;;;2.33;;
65706;SDS011;52423;43.512;5.220;2022-10-18T12:14:06;5.40;;;2.63;;
65706;SDS011;52423;43.512;5.220;2022-10-18T12:16:59;10.35;;;2.90;;
65706;SDS011;52423;43.512;5.220;2022-10-18T12:19:28;6.95;;;2.38;;
65706;SDS011;52423;43.512;5.220;2022-10-18T12:22:00;7.47;;;3.03;;
65706;SDS011;52423;43.512;5.220;2022-10-18T12:24:34;11.75;;;3.10;;
65706;SDS011;52423;43.512;5.220;2022-10-18T12:27:00;8.35;;;2.58;;
65706;SDS011;52423;43.512;5.220;2022-10-18T12:29:40;7.28;;;2.60;;
65706;SDS011;52423;43.512;5.220;2022-10-18T12:32:28;3.65;;;2.15;;
65706;SDS011;52423;43.512;5.220;2022-10-18T12:34:58;9.57;;;2.75;;
65706;SDS011;52423;43.512;5.220;2022-10-18T12:37:53;8.10;;;2.88;;
65706;SDS011;52423;43.512;5.220;2022-10-18T12:40:23;5.80;;;2.10;;
65706;SDS011;52423;43.512;5.220;2022-10-18T12:43:08;10.10;;;2.63;;
65706;SDS011;52423;43.512;5.220;2022-10-18T12:45:48;6.30;;;2.28;;
65706;SDS011;52423;43.512;5.220;2022-10-18T12:48:29;6.63;;;2.50;;
65706;SDS011;52423;43.512;5.220;2022-10-18T12:51:04;7.88;;;2.72;;
65706;SDS011;52423;43.512;5.220;2022-10-18T12:53:37;7.10;;;2.40;;
65706;SDS011;52423;43.512;5.220;2022-10-18T12:59:50;6.03;;;2.25;;
65706;SDS011;52423;43.512;5.220;2022-10-18T13:09:21;4.88;;;2.10;;
65706;SDS011;52423;43.512;5.220;2022-10-18T13:11:47;7.97;;;2.53;;
65706;SDS011;52423;43.512;5.220;2022-10-18T13:14:24;7.88;;;2.47;;
65706;SDS011;52423;43.512;5.220;2022-10-18T13:19:57;3.35;;;2.25;;
65706;SDS011;52423;43.512;5.220;2022-10-18T13:22:54;4.07;;;1.88;;
65706;SDS011;52423;43.512;5.220;2022-10-18T13:33:34;6.72;;;2.50;;
65706;SDS011;52423;43.512;5.220;2022-10-18T13:44:08;4.00;;;2.20;;
65706;SDS011;52423;43.512;5.220;2022-10-18T13:51:47;5.28;;;2.55;;
65706;SDS011;52423;43.512;5.220;2022-10-18T14:06:03;6.88;;;2.33;;
65706;SDS011;52423;43.512;5.220;2022-10-18T14:08:52;6.47;;;2.30;;
65706;SDS011;52423;43.512;5.220;2022-10-18T14:14:10;4.22;;;2.13;;
65706;SDS011;52423;43.512;5.220;2022-10-18T14:16:51;3.53;;;1.90;;
65706;SDS011;52423;43.512;5.220;2022-10-18T14:21:57;3.55;;;1.90;;
65706;SDS011;52423;43.512;5.220;2022-10-18T14:24:30;3.72;;;1.80;;
65706;SDS011;52423;43.512;5.220;2022-10-18T14:27:14;8.05;;;2.10;;
65706;SDS011;52423;43.512;5.220;2022-10-18T14:29:42;10.27;;;2.30;;
65706;SDS011;52423;43.512;5.220;2022-10-18T14:32:08;4.25;;;1.77;;
65706;SDS011;52423;43.512;5.220;2022-10-18T14:34:36;6.28;;;1.83;;
65706;SDS011;52423;43.512;5.220;2022-10-18T14:37:02;3.15;;;1.85;;
65706;SDS011;52423;43.512;5.220;2022-10-18T14:39:27;6.38;;;2.13;;
65706;SDS011;52423;43.512;5.220;2022-10-18T14:41:54;4.00;;;1.90;;
65706;SDS011;52423;43.512;5.220;2022-10-18T14:46:52;7.82;;;2.17;;
65706;SDS011;52423;43.512;5.220;2022-10-18T14:49:24;4.65;;;2.20;;
65706;SDS011;52423;43.512;5.220;2022-10-18T14:51:51;6.57;;;2.10;;
65706;SDS011;52423;43.512;5.220;2022-10-18T14:54:20;4.63;;;2.00;;
65706;SDS011;52423;43.512;5.220;2022-10-18T14:56:49;7.18;;;2.53;;
65706;SDS011;52423;43.512;5.220;2022-10-18T14:59:16;5.32;;;2.00;;
65706;SDS011;52423;43.512;5.220;2022-10-18T15:02:00;6.05;;;1.95;;
65706;SDS011;52423;43.512;5.220;2022-10-18T15:04:31;7.60;;;2.10;;
65706;SDS011;52423;43.512;5.220;2022-10-18T15:07:03;8.15;;;2.38;;
65706;SDS011;52423;43.512;5.220;2022-10-18T15:09:31;2.92;;;2.05;;
65706;SDS011;52423;43.512;5.220;2022-10-18T15:11:59;5.88;;;2.35;;
65706;SDS011;52423;43.512;5.220;2022-10-18T15:14:26;5.30;;;2.75;;
65706;SDS011;52423;43.512;5.220;2022-10-18T15:16:55;10.35;;;2.78;;
65706;SDS011;52423;43.512;5.220;2022-10-18T15:19:33;6.40;;;2.40;;
65706;SDS011;52423;43.512;5.220;2022-10-18T15:22:05;11.90;;;2.72;;
65706;SDS011;52423;43.512;5.220;2022-10-18T15:24:36;4.43;;;2.45;;
65706;SDS011;52423;43.512;5.220;2022-10-18T15:29:50;6.75;;;2.72;;
65706;SDS011;52423;43.512;5.220;2022-10-18T15:32:26;6.05;;;3.38;;
65706;SDS011;52423;43.512;5.220;2022-10-18T15:34:53;13.45;;;3.35;;
65706;SDS011;52423;43.512;5.220;2022-10-18T15:37:34;11.52;;;3.30;;
65706;SDS011;52423;43.512;5.220;2022-10-18T15:42:47;7.03;;;3.55;;
65706;SDS011;52423;43.512;5.220;2022-10-18T15:50:43;7.00;;;3.42;;
65706;SDS011;52423;43.512;5.220;2022-10-18T15:56:01;11.68;;;3.45;;
65706;SDS011;52423;43.512;5.220;2022-10-18T15:58:49;10.88;;;3.10;;
65706;SDS011;52423;43.512;5.220;2022-10-18T16:01:37;6.93;;;3.25;;
65706;SDS011;52423;43.512;5.220;2022-10-18T16:06:54;9.10;;;3.42;;
65706;SDS011;52423;43.512;5.220;2022-10-18T16:09:21;10.68;;;3.25;;
65706;SDS011;52423;43.512;5.220;2022-10-18T16:11:48;5.75;;;3.10;;
65706;SDS011;52423;43.512;5.220;2022-10-18T16:14:15;10.13;;;3.80;;
65706;SDS011;52423;43.512;5.220;2022-10-18T16:16:44;6.45;;;3.20;;
65706;SDS011;52423;43.512;5.220;2022-10-18T16:19:12;10.30;;;3.50;;
65706;SDS011;52423;43.512;5.220;2022-10-18T16:21:39;8.45;;;3.42;;
65706;SDS011;52423;43.512;5.220;2022-10-18T16:24:05;8.77;;;3.30;;
65706;SDS011;52423;43.512;5.220;2022-10-18T16:26:31;9.77;;;2.92;;
65706;SDS011;52423;43.512;5.220;2022-10-18T16:28:57;6.20;;;2.72;;
65706;SDS011;52423;43.512;5.220;2022-10-18T16:31:24;9.00;;;3.10;;
65706;SDS011;52423;43.512;5.220;2022-10-18T16:33:51;10.05;;;3.03;;
65706;SDS011;52423;43.512;5.220;2022-10-18T16:36:18;6.50;;;2.58;;
65706;SDS011;52423;43.512;5.220;2022-10-18T16:38:48;11.20;;;2.92;;
65706;SDS011;52423;43.512;5.220;2022-10-18T16:41:14;4.13;;;2.55;;
65706;SDS011;52423;43.512;5.220;2022-10-18T16:43:40;9.73;;;3.25;;
65706;SDS011;52423;43.512;5.220;2022-10-18T16:46:09;7.45;;;2.85;;
65706;SDS011;52423;43.512;5.220;2022-10-18T16:48:41;10.98;;;2.90;;
65706;SDS011;52423;43.512;5.220;2022-10-18T16:51:07;5.93;;;2.58;;
65706;SDS011;52423;43.512;5.220;2022-10-18T16:53:33;6.32;;;3.00;;
65706;SDS011;52423;43.512;5.220;2022-10-18T16:56:00;7.95;;;2.70;;
65706;SDS011;52423;43.512;5.220;2022-10-18T16:58:27;7.63;;;2.67;;
65706;SDS011;52423;43.512;5.220;2022-10-18T17:00:54;8.05;;;3.10;;
65706;SDS011;52423;43.512;5.220;2022-10-18T17:03:19;5.43;;;2.47;;
65706;SDS011;52423;43.512;5.220;2022-10-18T17:05:45;6.82;;;3.00;;
65706;SDS011;52423;43.512;5.220;2022-10-18T17:08:15;6.72;;;3.08;;
65706;SDS011;52423;43.512;5.220;2022-10-18T17:10:42;8.85;;;3.10;;
65706;SDS011;52423;43.512;5.220;2022-10-18T17:13:08;11.38;;;3.10;;
65706;SDS011;52423;43.512;5.220;2022-10-18T17:15:33;12.43;;;3.22;;
65706;SDS011;52423;43.512;5.220;2022-10-18T17:17:59;9.10;;;2.78;;
65706;SDS011;52423;43.512;5.220;2022-10-18T17:20:25;7.53;;;2.97;;
65706;SDS011;52423;43.512;5.220;2022-10-18T17:22:51;8.60;;;3.05;;
65706;SDS011;52423;43.512;5.220;2022-10-18T17:25:17;10.20;;;2.95;;
65706;SDS011;52423;43.512;5.220;2022-10-18T17:27:43;9.20;;;2.65;;
65706;SDS011;52423;43.512;5.220;2022-10-18T17:30:09;7.05;;;3.13;;
65706;SDS011;52423;43.512;5.220;2022-10-18T17:32:36;6.90;;;2.78;;
65706;SDS011;52423;43.512;5.220;2022-10-18T17:35:02;10.88;;;2.88;;
65706;SDS011;52423;43.512;5.220;2022-10-18T17:37:27;5.97;;;2.92;;
65706;SDS011;52423;43.512;5.220;2022-10-18T17:39:53;5.28;;;2.60;;
65706;SDS011;52423;43.512;5.220;2022-10-18T17:42:18;6.55;;;3.17;;
65706;SDS011;52423;43.512;5.220;2022-10-18T17:44:45;8.50;;;2.53;;